Latest Coastal Weather Observations for Wadeye (Port Keats)

IDD60701

Issued at 8:01 pm CST Friday 29 May 2015 (issued every 10 minutes, with the page automatically refreshed every 10 minutes)

About coastal observations | Map of coastal stations | Coastal observations for NT | Marine services | Other Formats
Station Details ID: 014948 Name: PORT KEATS AIRPORT Lat: -14.25 Lon: 129.53 Height: 28.0 m
Data from the previous 72 hours. | See also: Recent months at Wadeye (Port Keats)
Date/Time
CST
Temp

°C
Wind Pressure Rain
since 9am
mm
Weather Cloud Vis
km
Sea
Height
m
Swell
Dir
 
Speed
knots
Gust
knots
hPa Trend Height
m
Period
s
Dir
29/08:00pm 24.4 CALM 0 0 1013.0 - 0.0 - - - - - - -
29/07:30pm 25.2 CALM 0 0 1012.8 - 0.0 - - - - - - -
29/07:00pm 25.9 WSW 3 4 1012.5 - 0.0 - - - - - - -
29/06:30pm 26.7 W 5 8 1012.3 - 0.0 - - - - - - -
29/06:00pm 28.0 WSW 5 8 1011.9 - 0.0 - - - - - - -
29/05:30pm 29.2 WSW 5 7 1011.6 - 0.0 - - - - - - -
29/05:00pm 29.3 W 7 10 1011.4 - 0.0 - - - - - - -
29/04:30pm 29.6 W 8 10 1011.4 - 0.0 - - - - - - -
29/04:00pm 30.3 WSW 6 13 1011.4 - 0.0 - - - - - - -
29/03:30pm 30.6 W 8 11 1011.4 - 0.0 - - - - - - -
29/03:00pm 30.6 W 9 14 1011.4 - 0.0 - - - - - - -
29/02:30pm 34.5 ENE 8 11 1011.5 - 0.0 - - - - - - -
29/02:00pm 34.3 E 9 13 1011.9 - 0.0 - - - - - - -
29/01:30pm 33.4 ENE 8 16 1012.3 - 0.0 - - - - - - -
29/01:00pm 33.7 E 9 13 1013.0 - 0.0 - - - - - - -
29/12:30pm 32.5 E 8 11 1013.6 - 0.0 - - - - - - -
29/12:00pm 32.0 ENE 11 16 1013.9 - 0.0 - - - - - - -
29/11:30am 31.7 E 10 16 1014.0 - 0.0 - - - - - - -
29/11:00am 31.2 ENE 8 11 1014.4 - 0.0 - - - - - - -
29/10:30am 30.4 ENE 8 12 1014.7 - 0.0 - - - - - - -
29/10:00am 29.2 ENE 8 13 1014.9 - 0.0 - - - - - - -
29/09:30am 28.1 E 7 11 1014.7 - 0.0 - - - - - - -
29/09:00am 27.2 E 5 8 1014.6 - 0.0 - - - - - - -
29/08:30am 25.3 E 3 5 1014.2 - 0.0 - - - - - - -
29/08:00am 22.9 ENE 2 4 1013.7 - 0.0 - - - - - - -
29/07:30am 20.7 ENE 4 5 1013.4 - 0.0 - - - - - - -
29/07:00am 19.2 ENE 2 4 1013.0 - 0.0 - - - - - - -
29/06:30am 19.0 CALM 0 0 1012.9 - 0.0 - - - - - - -
29/06:00am 18.6 CALM 0 0 1012.8 - 0.0 - - - - - - -
29/05:30am 18.7 CALM 0 0 1012.7 - 0.0 - - - - - - -
29/05:00am 19.0 CALM 0 0 1012.5 - 0.0 - - - - - - -
29/04:30am 19.7 CALM 0 0 1012.4 - 0.0 - - - - - - -
29/04:00am 19.7 SSE 5 6 1012.1 - 0.0 - - - - - - -
29/03:30am 19.9 SE 4 5 1012.3 - 0.0 - - - - - - -
29/03:00am 20.0 SSE 4 5 1012.3 - 0.0 - - - - - - -
29/02:30am 20.3 S 3 4 1012.5 - 0.0 - - - - - - -
29/02:00am 20.4 S 2 4 1012.7 - 0.0 - - - - - - -
29/01:30am 21.0 SSW 4 6 1012.7 - 0.0 - - - - - - -
29/01:00am 21.0 S 4 5 1012.9 - 0.0 - - - - - - -
29/12:30am 21.0 S 3 4 1013.1 - 0.0 - - - - - - -
29/12:00am 21.5 S 4 5 1013.2 - 0.0 - - - - - - -
 
Date/Time
CST
Temp

°C
Wind Pressure Rain
since 9am
mm
Weather Cloud Vis
km
Sea
Height
m
Swell
Dir
 
Speed
knots
Gust
knots
hPa Trend Height
m
Period
s
Dir
28/11:30pm 21.4 S 3 5 1013.4 - 0.0 - - - - - - -
28/11:00pm 21.6 CALM 0 0 1013.4 - 0.0 - - - - - - -
28/10:30pm 22.0 CALM 0 0 1013.5 - 0.0 - - - - - - -
28/10:00pm 22.7 CALM 0 0 1013.5 - 0.0 - - - - - - -
28/09:30pm 22.8 CALM 0 0 1013.3 - 0.0 - - - - - - -
28/09:00pm 23.4 CALM 0 0 1013.1 - 0.0 - - - - - - -
28/08:30pm 24.3 CALM 0 0 1012.8 - 0.0 - - - - - - -
28/08:00pm 25.5 N 1 3 1012.6 - 0.0 - - - - - - -
28/07:30pm 25.9 CALM 0 0 1012.3 - 0.0 - - - - - - -
28/07:00pm 27.0 S 1 3 1011.8 - 0.0 - - - - - - -
28/06:30pm 27.6 SW 3 5 1011.5 - 0.0 - - - - - - -
28/06:00pm 28.3 WSW 4 7 1011.2 - 0.0 - - - - - - -
28/05:30pm 29.3 WSW 4 7 1010.9 - 0.0 - - - - - - -
28/05:00pm 30.8 WSW 5 6 1010.8 - 0.0 - - - - - - -
28/04:30pm 31.6 W 6 9 1010.6 - 0.0 - - - - - - -
28/04:00pm 32.2 W 6 9 1010.6 - 0.0 - - - - - - -
28/03:30pm 32.1 WNW 6 9 1010.5 - 0.0 - - - - - - -
28/03:00pm 32.6 NNW 5 9 1010.7 - 0.0 - - - - - - -
28/02:30pm 34.1 NE 7 10 1011.0 - 0.0 - - - - - - -
28/02:00pm 33.9 E 8 11 1011.4 - 0.0 - - - - - - -
28/01:30pm 33.0 ESE 8 12 1012.1 - 0.0 - - - - - - -
28/01:00pm 33.4 ESE 8 12 1012.6 - 0.0 - - - - - - -
28/12:30pm 33.1 ENE 8 13 1013.1 - 0.0 - - - - - - -
28/12:00pm 33.0 ENE 6 9 1013.4 - 0.0 - - - - - - -
28/11:30am 31.6 E 7 11 1013.8 - 0.0 - - - - - - -
28/11:00am 30.9 SSE 6 9 1013.9 - 0.0 - - - - - - -
28/10:30am 30.6 SE 7 10 1014.1 - 0.0 - - - - - - -
28/10:00am 28.8 SSE 6 7 1014.1 - 0.0 - - - - - - -
28/09:30am 27.7 SSW 4 7 1014.0 - 0.0 - - - - - - -
28/09:00am 26.1 SSW 3 5 1013.8 - 0.0 - - - - - - -
28/08:30am 23.6 S 1 4 1013.7 - 0.0 - - - - - - -
28/08:00am 21.3 CALM 0 0 1013.3 - 0.0 - - - - - - -
28/07:30am 20.7 CALM 0 0 1012.9 - 0.0 - - - - - - -
28/07:00am 20.7 CALM 0 0 1012.7 - 0.0 - - - - - - -
28/06:30am 20.5 CALM 0 0 1012.4 - 0.0 - - - - - - -
28/06:00am 20.2 CALM 0 0 1012.2 - 0.0 - - - - - - -
28/05:30am 20.2 CALM 0 0 1011.9 - 0.0 - - - - - - -
28/05:00am 20.1 CALM 0 0 1011.9 - 0.0 - - - - - - -
28/04:30am 20.1 CALM 0 0 1011.8 - 0.0 - - - - - - -
28/04:00am 20.3 CALM 0 0 1012.0 - 0.0 - - - - - - -
28/03:30am 20.8 CALM 0 0 1012.2 - 0.0 - - - - - - -
28/03:00am 21.0 CALM 0 0 1012.3 - 0.0 - - - - - - -
28/02:30am 21.0 CALM 0 0 1012.7 - 0.0 - - - - - - -
28/02:00am 21.2 CALM 0 0 1012.8 - 0.0 - - - - - - -
28/01:30am 22.1 CALM 0 0 1012.8 - 0.0 - - - - - - -
28/01:00am 21.2 CALM 0 0 1013.0 - 0.0 - - - - - - -
28/12:30am 21.3 CALM 0 0 1013.3 - 0.0 - - - - - - -
28/12:00am 21.5 CALM 0 3 1013.3 - 0.0 - - - - - - -
 
Date/Time
CST
Temp

°C
Wind Pressure Rain
since 9am
mm
Weather Cloud Vis
km
Sea
Height
m
Swell
Dir
 
Speed
knots
Gust
knots
hPa Trend Height
m
Period
s
Dir
27/11:30pm 22.2 CALM 0 0 1013.5 - 0.0 - - - - - - -
27/11:00pm 22.3 CALM 0 0 1013.4 - 0.0 - - - - - - -
27/10:30pm 21.9 CALM 0 0 1013.2 - 0.0 - - - - - - -
27/10:00pm 22.5 CALM 0 0 1013.1 - 0.0 - - - - - - -
27/09:30pm 23.1 CALM 0 0 1012.9 - 0.0 - - - - - - -
27/09:00pm 23.5 CALM 0 0 1012.9 - 0.0 - - - - - - -
27/08:30pm 24.1 CALM 0 0 1012.7 - 0.0 - - - - - - -
27/08:00pm 24.7 CALM 0 0 1012.4 - 0.0 - - - - - - -
27/07:30pm 25.6 CALM 0 0 1012.0 - 0.0 - - - - - - -
27/07:00pm 26.3 W 3 4 1011.6 - 0.0 - - - - - - -
27/06:30pm 27.2 WSW 4 5 1011.2 - 0.0 - - - - - - -
27/06:00pm 28.5 WNW 5 7 1011.2 - 0.0 - - - - - - -
27/05:30pm 29.6 W 5 7 1010.8 - 0.0 - - - - - - -
27/05:00pm 30.4 W 6 8 1010.6 - 0.0 - - - - - - -
27/04:30pm 30.6 W 7 10 1010.5 - 0.0 - - - - - - -
27/04:00pm 31.2 W 7 12 1010.4 - 0.0 - - - - - - -
27/03:30pm 32.1 W 7 12 1010.4 - 0.0 - - - - - - -
27/03:00pm 35.2 SE 4 6 1010.4 - 0.0 - - - - - - -
27/02:30pm 34.6 ESE 7 12 1010.6 - 0.0 - - - - - - -
27/02:00pm 34.9 SE 9 11 1011.0 - 0.0 - - - - - - -
27/01:30pm 34.6 SE 9 13 1011.6 - 0.0 - - - - - - -
27/01:00pm 33.6 ESE 8 11 1012.4 - 0.0 - - - - - - -
27/12:30pm 33.3 SE 8 14 1013.1 - 0.0 - - - - - - -
27/12:00pm 32.4 ENE 8 11 1013.5 - 0.0 - - - - - - -
27/11:30am 32.2 ENE 8 11 1013.9 - 0.0 - - - - - - -
27/11:00am 31.4 ENE 9 13 1014.3 - 0.0 - - - - - - -
27/10:30am 30.3 ENE 9 16 1014.6 - 0.0 - - - - - - -
27/10:00am 29.8 E 8 13 1014.7 - 0.0 - - - - - - -
27/09:30am 28.4 E 7 11 1014.9 - 0.0 - - - - - - -
27/09:00am 26.9 SE 5 7 1014.5 - 0.0 - - - - - - -
27/08:30am 24.9 SE 4 5 1014.2 - 0.0 - - - - - - -
27/08:00am 22.4 ENE 3 5 1013.8 - 0.0 - - - - - - -
27/07:30am 23.0 SE 6 10 1013.4 - 0.0 - - - - - - -
27/07:00am 22.0 SE 6 9 1012.6 - 0.0 - - - - - - -
27/06:30am 18.5 SSE 4 5 1012.3 - 0.0 - - - - - - -
27/06:00am 18.7 SSE 2 4 1012.2 - 0.0 - - - - - - -
27/05:30am 19.2 CALM 0 0 1012.1 - 0.0 - - - - - - -
27/05:00am 19.2 CALM 0 0 1012.3 - 0.0 - - - - - - -
27/04:30am 19.4 CALM 0 0 1012.5 - 0.0 - - - - - - -
27/04:00am 19.9 CALM 0 0 1012.8 - 0.0 - - - - - - -
27/03:30am 20.3 CALM 0 0 1013.0 - 0.0 - - - - - - -
27/03:00am 20.6 CALM 0 0 1013.5 - 0.0 - - - - - - -
27/02:30am 21.1 CALM 0 0 1013.9 - 0.0 - - - - - - -
27/02:00am 21.5 CALM 0 0 1014.3 - 0.0 - - - - - - -
27/01:30am 22.4 CALM 0 2 1014.5 - 0.0 - - - - - - -
27/01:00am 23.0 N 3 5 1014.6 - 0.0 - - - - - - -
27/12:30am 23.9 CALM 0 0 1014.7 - 0.0 - - - - - - -
27/12:00am 22.8 S 3 4 1014.8 - 0.0 - - - - - - -
 
Date/Time
CST
Temp

°C
Wind Pressure Rain
since 9am
mm
Weather Cloud Vis
km
Sea
Height
m
Swell
Dir
 
Speed
knots
Gust
knots
hPa Trend Height
m
Period
s
Dir
26/11:30pm 22.8 CALM 0 0 1015.0 - 0.0 - - - - - - -
26/11:00pm 22.7 CALM 0 1 1015.0 - 0.0 - - - - - - -
26/10:30pm 23.0 S 3 4 1015.0 - 0.0 - - - - - - -
26/10:00pm 23.0 SSW 4 5 1014.9 - 0.0 - - - - - - -
26/09:30pm 22.9 SSW 4 5 1014.7 - 0.0 - - - - - - -
26/09:00pm 23.3 CALM 0 0 1014.5 - 0.0 - - - - - - -
26/08:30pm 24.1 CALM 0 0 1014.3 - 0.0 - - - - - - -

Other Formats:

Comma delimited format used in spreadsheet applications
http://www.bom.gov.au/fwo/IDD60701/IDD60701.95111.axf

JavaScript Object Notation format (JSON) in row-major order
http://www.bom.gov.au/fwo/IDD60701/IDD60701.95111.json